createdAt,value
2022-10-09T20:53:39.785Z,3.90
2022-10-09T20:56:09.277Z,3.58
2022-10-09T20:58:38.021Z,3.70
2022-10-09T21:01:06.885Z,3.83
2022-10-09T21:03:35.448Z,4.00
2022-10-09T21:06:03.523Z,3.67
2022-10-09T21:08:31.546Z,4.05
2022-10-09T21:11:00.994Z,3.63
2022-10-09T21:13:28.883Z,5.90
2022-10-09T21:15:56.775Z,8.63
2022-10-09T21:18:24.577Z,5.30
2022-10-09T21:20:52.358Z,4.43
2022-10-09T21:23:20.301Z,3.90
2022-10-09T21:25:48.911Z,4.13
2022-10-09T21:28:18.332Z,3.65
2022-10-09T21:30:46.177Z,4.10
2022-10-09T21:33:14.224Z,3.50
2022-10-09T21:35:42.729Z,3.70
2022-10-09T21:38:11.669Z,3.28
2022-10-09T21:40:39.439Z,3.83
2022-10-09T21:43:08.291Z,3.47
2022-10-09T21:45:37.471Z,4.00
2022-10-09T21:48:05.483Z,4.47
2022-10-09T21:50:33.335Z,3.75
2022-10-09T21:53:01.123Z,3.78
2022-10-09T21:55:29.229Z,3.30
2022-10-09T21:57:58.196Z,3.17
2022-10-09T22:00:25.975Z,3.58
2022-10-09T22:02:55.344Z,2.90
2022-10-09T22:05:23.313Z,3.33
2022-10-09T22:07:51.685Z,3.28
2022-10-09T22:10:20.208Z,2.95
2022-10-09T22:12:48.242Z,2.75
2022-10-09T22:15:16.258Z,3.05
2022-10-09T22:17:45.079Z,3.03
2022-10-09T22:20:14.379Z,3.28
2022-10-09T22:22:42.888Z,3.25
2022-10-09T22:25:10.729Z,2.85
2022-10-09T22:27:38.704Z,3.33
2022-10-09T22:30:07.107Z,2.90
2022-10-09T22:32:34.947Z,2.45
2022-10-09T22:35:02.707Z,3.22
2022-10-09T22:37:32.020Z,3.20
2022-10-09T22:39:59.779Z,3.15
2022-10-09T22:42:27.488Z,2.72
2022-10-09T22:47:23.068Z,2.55
2022-10-09T22:49:51.063Z,2.63
2022-10-09T22:52:18.861Z,2.50
2022-10-09T22:54:48.723Z,2.55
2022-10-09T22:57:16.529Z,2.10
2022-10-09T22:59:45.307Z,2.78
2022-10-09T23:02:13.620Z,2.58
2022-10-09T23:04:41.464Z,2.63
2022-10-09T23:07:09.337Z,2.75
2022-10-09T23:09:37.083Z,2.83
2022-10-09T23:12:06.631Z,2.35
2022-10-09T23:14:34.400Z,2.63
2022-10-09T23:17:02.263Z,1.90
2022-10-09T23:19:30.136Z,2.40
2022-10-09T23:21:58.163Z,2.20
2022-10-09T23:24:25.911Z,2.53
2022-10-09T23:26:53.988Z,2.17
2022-10-09T23:29:23.152Z,2.20
2022-10-09T23:31:53.169Z,2.05
2022-10-09T23:34:21.048Z,2.38
2022-10-09T23:36:49.630Z,2.17
2022-10-09T23:39:17.513Z,2.60
2022-10-09T23:41:45.235Z,2.00
2022-10-09T23:44:13.959Z,1.92
2022-10-09T23:46:43.064Z,2.22
2022-10-09T23:49:10.991Z,1.75
2022-10-09T23:51:38.884Z,2.20
2022-10-09T23:54:07.332Z,2.15
2022-10-09T23:56:36.069Z,1.90
2022-10-09T23:59:06.110Z,1.67
